createdAt,value
2022-08-25T00:01:20.699Z,9.50
2022-08-25T00:03:49.407Z,15.48
2022-08-25T00:06:16.700Z,11.38
2022-08-25T00:08:44.539Z,7.53
2022-08-25T00:11:17.457Z,7.03
2022-08-25T00:13:47.233Z,10.45
2022-08-25T00:16:16.945Z,7.68
2022-08-25T00:18:48.230Z,8.25
2022-08-25T00:21:16.709Z,8.07
2022-08-25T00:23:45.487Z,11.73
2022-08-25T00:26:13.586Z,8.60
2022-08-25T00:28:40.498Z,13.43
2022-08-25T00:31:11.703Z,9.43
2022-08-25T00:33:38.715Z,15.02
2022-08-25T00:36:06.327Z,10.18
2022-08-25T00:38:33.210Z,9.80
2022-08-25T00:41:06.193Z,11.55
2022-08-25T00:43:56.719Z,9.57
2022-08-25T00:46:40.181Z,13.25
2022-08-25T00:49:24.688Z,9.40
2022-08-25T00:52:14.218Z,8.13
2022-08-25T00:55:07.856Z,10.60
2022-08-25T00:57:44.050Z,10.02
2022-08-25T01:00:16.738Z,10.10
2022-08-25T01:02:43.736Z,10.25
2022-08-25T01:05:12.611Z,11.38
2022-08-25T01:07:41.760Z,10.13
2022-08-25T01:10:13.570Z,11.45
2022-08-25T01:12:41.296Z,12.18
2022-08-25T01:15:10.528Z,16.85
2022-08-25T01:17:55.736Z,10.90
2022-08-25T01:20:29.349Z,12.48
2022-08-25T01:22:57.501Z,10.57
2022-08-25T01:25:40.144Z,13.63
2022-08-25T01:28:07.245Z,10.77
2022-08-25T01:30:35.338Z,10.13
2022-08-25T01:33:07.558Z,12.38
2022-08-25T01:35:35.715Z,9.63
2022-08-25T01:38:05.897Z,10.63
2022-08-25T01:40:34.167Z,11.75
2022-08-25T01:43:07.250Z,16.10
2022-08-25T01:45:35.113Z,10.43
2022-08-25T01:48:03.034Z,9.35
2022-08-25T01:50:29.987Z,12.43
2022-08-25T01:53:28.380Z,12.45
2022-08-25T01:56:02.725Z,8.80
2022-08-25T01:58:35.931Z,13.57
2022-08-25T02:01:09.563Z,14.25
2022-08-25T02:03:42.231Z,11.55
2022-08-25T02:06:13.046Z,12.73
2022-08-25T02:08:41.367Z,12.43
2022-08-25T02:11:12.520Z,10.73
2022-08-25T02:13:41.263Z,11.52
2022-08-25T02:16:10.502Z,13.02
2022-08-25T02:18:37.441Z,12.18
2022-08-25T02:21:04.590Z,12.43
2022-08-25T02:23:31.820Z,13.32
2022-08-25T02:25:58.826Z,15.60
2022-08-25T02:28:26.043Z,10.02
2022-08-25T02:31:01.122Z,12.23
2022-08-25T02:33:33.879Z,12.85
2022-08-25T02:36:05.277Z,16.70
2022-08-25T02:38:32.105Z,14.90
2022-08-25T02:41:00.121Z,14.32
2022-08-25T02:43:28.974Z,12.02
2022-08-25T02:45:56.549Z,10.73
2022-08-25T02:48:23.783Z,11.18
2022-08-25T02:50:52.647Z,14.82
2022-08-25T02:55:48.007Z,11.90
2022-08-25T02:58:15.678Z,12.00
2022-08-25T03:00:42.721Z,17.02
2022-08-25T03:03:10.266Z,14.23
2022-08-25T03:05:37.377Z,15.27
2022-08-25T03:08:05.929Z,15.38
2022-08-25T03:10:33.587Z,18.10
2022-08-25T03:13:00.569Z,12.52
2022-08-25T03:15:27.879Z,11.85
2022-08-25T03:17:59.799Z,13.65
2022-08-25T03:20:28.493Z,17.02
2022-08-25T03:22:55.575Z,11.43
2022-08-25T03:25:41.060Z,14.30
2022-08-25T03:28:08.845Z,11.52
2022-08-25T03:30:35.909Z,12.85
2022-08-25T03:33:03.889Z,11.60
2022-08-25T03:35:31.036Z,15.88
2022-08-25T03:37:59.263Z,9.27
2022-08-25T03:40:26.700Z,13.77
2022-08-25T03:42:55.468Z,11.50
2022-08-25T03:45:22.963Z,12.65
2022-08-25T03:47:50.740Z,16.48
2022-08-25T03:50:20.123Z,15.95
2022-08-25T03:52:53.854Z,16.83
2022-08-25T03:55:23.111Z,13.98
2022-08-25T03:57:51.017Z,16.63
2022-08-25T04:00:18.934Z,15.77
2022-08-25T04:02:46.316Z,15.95
2022-08-25T04:05:14.227Z,14.90
2022-08-25T04:07:42.808Z,20.48
2022-08-25T04:10:10.900Z,17.33
2022-08-25T04:12:38.275Z,22.40
2022-08-25T04:15:06.616Z,20.48
2022-08-25T04:17:34.150Z,19.27
2022-08-25T04:20:01.993Z,17.20
2022-08-25T04:22:29.929Z,20.50
2022-08-25T04:24:59.126Z,22.67
2022-08-25T04:27:25.921Z,20.27
2022-08-25T04:29:52.670Z,19.35
2022-08-25T04:32:19.901Z,22.70
2022-08-25T04:34:46.795Z,16.48
2022-08-25T04:37:13.556Z,14.10
2022-08-25T04:39:40.753Z,20.92
2022-08-25T04:42:07.813Z,17.95
2022-08-25T04:44:34.742Z,20.67
2022-08-25T04:47:02.178Z,25.02
2022-08-25T04:49:29.034Z,24.88
2022-08-25T04:51:57.572Z,20.63
2022-08-25T04:54:24.814Z,14.65
2022-08-25T04:56:54.234Z,22.75
2022-08-25T04:59:30.390Z,30.55
2022-08-25T05:02:02.036Z,21.83
2022-08-25T05:04:29.515Z,21.02
2022-08-25T05:06:58.203Z,18.58
2022-08-25T05:09:26.355Z,24.02
2022-08-25T05:11:53.894Z,22.95
2022-08-25T05:14:23.168Z,30.88
2022-08-25T05:16:54.076Z,26.98
2022-08-25T05:19:20.969Z,24.00
2022-08-25T05:21:48.009Z,22.13
2022-08-25T05:24:14.884Z,22.52
2022-08-25T05:26:41.934Z,25.85
2022-08-25T05:29:10.880Z,22.70
2022-08-25T05:31:42.385Z,21.00
2022-08-25T05:34:10.232Z,22.40
2022-08-25T05:36:38.447Z,19.05
2022-08-25T05:39:05.423Z,20.85
2022-08-25T05:41:33.478Z,17.20
2022-08-25T05:44:00.469Z,27.87
2022-08-25T05:46:27.558Z,17.58
2022-08-25T05:48:59.181Z,21.55
2022-08-25T05:51:26.749Z,21.80
2022-08-25T05:53:54.087Z,20.98
2022-08-25T05:56:22.522Z,23.77
2022-08-25T05:58:50.402Z,24.65
2022-08-25T06:01:43.494Z,16.63
2022-08-25T06:04:13.655Z,18.38
2022-08-25T06:06:41.267Z,23.02
2022-08-25T06:09:09.752Z,22.60
2022-08-25T06:11:39.973Z,16.63
2022-08-25T06:14:09.856Z,15.82
2022-08-25T06:16:39.187Z,19.40
2022-08-25T06:19:08.886Z,17.67
2022-08-25T06:21:36.084Z,17.33
2022-08-25T06:24:02.993Z,17.75
2022-08-25T06:26:29.953Z,15.90
2022-08-25T06:28:56.838Z,15.30
2022-08-25T06:31:24.072Z,17.75
2022-08-25T06:33:52.272Z,21.42
2022-08-25T06:36:19.575Z,17.67
2022-08-25T06:38:47.667Z,16.30
2022-08-25T06:41:16.421Z,18.13
2022-08-25T06:43:48.173Z,13.30
2022-08-25T06:46:23.304Z,12.82
2022-08-25T06:49:03.952Z,13.82
2022-08-25T06:51:31.045Z,12.43
2022-08-25T06:53:57.780Z,13.90
2022-08-25T06:56:24.538Z,15.15
2022-08-25T06:58:53.745Z,15.88
2022-08-25T07:01:25.915Z,17.95
2022-08-25T07:03:59.453Z,15.40
2022-08-25T07:06:35.718Z,15.73
2022-08-25T07:09:05.211Z,13.32
2022-08-25T07:11:34.381Z,14.75
2022-08-25T07:14:03.016Z,13.20
2022-08-25T07:16:31.479Z,10.75
2022-08-25T07:19:00.692Z,9.13
2022-08-25T07:21:33.453Z,12.00
2022-08-25T07:24:03.458Z,11.75
2022-08-25T07:26:39.443Z,11.77
2022-08-25T07:29:14.057Z,12.15
2022-08-25T07:31:42.000Z,18.40
2022-08-25T07:34:28.610Z,11.90
2022-08-25T07:36:57.390Z,9.55
2022-08-25T07:39:26.369Z,9.25
2022-08-25T07:44:22.362Z,11.68
2022-08-25T07:46:51.314Z,10.55
2022-08-25T07:52:03.916Z,9.18
2022-08-25T07:54:35.234Z,13.23
2022-08-25T07:57:04.073Z,8.05
2022-08-25T07:59:39.068Z,12.68
2022-08-25T08:02:17.987Z,8.73
2022-08-25T08:05:27.583Z,14.60
2022-08-25T08:07:55.367Z,8.55
2022-08-25T08:10:53.520Z,7.50
2022-08-25T08:13:26.815Z,14.65
2022-08-25T08:15:54.714Z,7.03
